• Join FlightAware (Why Join?)
  • Login
  • US Flag 
11:15PM EDT


 

Airport Tracker/Info


-or-


 

Live Flight TrackerFlight Track Log ✈ RPA3321 ✈ 18-Aug-2013 ✈ KDCA - KCLT

Flight Track Log - Related Links

Times and Time Zones

All times are in EDT time to prevent confusion due to time zone crossing. See the RPA3321 flight status page for this flight to view local times or setup timezone preferences in your user account.

Time Position Orientation Groundspeed Altitude Reporting Facility
EDT Latitude Longitude Course Direction KTS MPH feet Rate Location/Type
11:14AM 38.8833 -77.0667 225° Southwest 188 216 1,700  Level Potomac TRACON
11:14AM 38.9333 -77.1333 314° West 264 304 4,000 2,940 Climbing Potomac TRACON
11:15AM 38.6665 -77.2337 237° Southwest  Level FlightAware Approximate
11:15AM 38.9833 -77.2000 314° West 290 334 7,300  Level Potomac TRACON
11:16AM 38.6089 -77.3078 218° Southwest  Level FlightAware Approximate
11:16AM 38.9333 -77.2667 226° Southwest 299 344 10,700  Level Potomac TRACON
11:17AM 38.5436 -77.3731 218° Southwest  Level FlightAware Approximate
11:17AM 38.8667 -77.3167 210° Southwest 332 382 12,000  Level Potomac TRACON
11:18AM 38.4842 -77.4466 225° Southwest  Level FlightAware Approximate
11:19AM 38.4258 -77.5216 225° Southwest  Level FlightAware Approximate
11:20AM 38.6617 -77.4236 202° Southwest 351 404 17,400  Level Washington Center
11:21AM 38.5797 -77.4694 204° Southwest 351 404 18,900 1,620 Climbing Washington Center
11:22AM 38.4872 -77.5200 203° Southwest 357 411 20,600 1,620 Climbing Washington Center
11:23AM 38.3947 -77.5733 204° Southwest 362 417 22,100 1,500 Climbing Washington Center
11:24AM 38.3261 -77.6747 229° Southwest 369 425 23,700 1,380 Climbing Washington Center
11:25AM 38.2575 -77.7786 230° Southwest 375 432 25,000 1,200 Climbing Washington Center
11:26AM 38.1911 -77.8850 232° Southwest 382 440 26,200 960 Climbing Washington Center
11:27AM 38.1200 -77.9908 230° Southwest 393 452 27,000 780 Climbing Washington Center
11:28AM 38.0511 -78.0969 231° Southwest 393 452 27,800 480 Climbing Washington Center
11:29AM 37.9800 -78.2078 231° Southwest 393 452 28,000 60 Climbing Washington Center
11:30AM 37.9067 -78.3131 229° Southwest 403 464 28,000  Level Washington Center
11:31AM 37.8333 -78.4208 229° Southwest 403 464 28,000  Level Washington Center
11:32AM 37.7514 -78.5361 228° Southwest 403 464 28,000  Level Washington Center
11:33AM 37.6756 -78.6433 228° Southwest 403 464 28,000  Level Washington Center
11:34AM 37.6000 -78.7478 228° Southwest 403 464 28,000  Level Washington Center
11:35AM 37.5239 -78.8572 229° Southwest 408 470 28,000  Level Washington Center
11:36AM 37.4567 -78.9511 228° Southwest 408 470 28,000  Level Washington Center
11:37AM 37.3806 -79.0575 228° Southwest 413 475 28,000  Level Washington Center
11:38AM 37.3044 -79.1639 228° Southwest 413 475 28,000  Level Washington Center
11:39AM 37.2244 -79.2617 224° Southwest 413 475 28,000  Level Washington Center
11:40AM 37.1303 -79.3406 214° Southwest 408 470 28,000  Level Washington Center
11:41AM 37.0425 -79.4092 212° Southwest 396 456 28,000  Level Washington Center
11:42AM 36.9589 -79.4803 214° Southwest 357 411 28,000  Level Washington Center
11:43AM 36.8817 -79.5442 214° Southwest 343 395 28,000  Level Washington Center
11:44AM 36.8000 -79.6100 213° Southwest 343 395 28,000  Level Washington Center
11:45AM 36.7164 -79.6808 214° Southwest 343 395 28,000  Level Washington Center
11:46AM 36.6369 -79.7439 212° Southwest 373 429 28,000 -300 Level Washington Center
11:47AM 36.5364 -79.8219 212° Southwest 382 440 27,400 -1,320 Descending Atlanta Center
11:48AM 36.4531 -79.8883 213° Southwest 382 440 25,400 -2,220 Descending Atlanta Center
11:49AM 36.3719 -79.9569 214° Southwest 370 426 23,000 -1,740 Descending Atlanta Center
11:50AM 36.2928 -80.0203 213° Southwest 350 403 22,000 -540 Descending Atlanta Center
11:51AM 36.2258 -80.0803 216° Southwest 343 395 22,000 -600 Level Atlanta Center
11:52AM 36.1489 -80.1458 215° Southwest 338 389 20,900 -1,440 Descending Atlanta Center
11:53AM 36.0717 -80.2111 214° Southwest 338 389 19,200 -1,560 Descending Atlanta Center
11:54AM 35.9964 -80.2761 215° Southwest 338 389 17,800 -1,800 Descending Atlanta Center
11:55AM 35.9131 -80.3494 215° Southwest 338 389 15,600 -2,040 Descending Atlanta Center
11:56AM 35.8419 -80.4114 215° Southwest 333 383 13,800 -1,560 Descending Atlanta Center
11:57AM 35.7747 -80.4656 213° Southwest 312 359 12,500 -1,500 Descending Atlanta Center
11:58AM 35.7117 -80.5194 215° Southwest 286 329 10,800 -1,860 Descending Atlanta Center
11:59AM 35.6994 -80.6044 260° West 249 287 8,800 -1,440 Descending Atlanta Center
12:00PM 35.6892 -80.6917 262° West 254 292 8,000 -420 Descending Atlanta Center
12:01PM 35.6811 -80.7792 264° West 261 300 8,000  Level Atlanta Center
12:02PM 35.6728 -80.8511 262° West 236 272 8,000  Level Atlanta Center
12:03PM 35.6697 -80.8997 266° West 199 229 8,000  Level Atlanta Center
12:03PM 35.6667 -80.9408 265° West 158 182 8,000  Level Atlanta Center
12:04PM 35.6361 -80.9750 222° Southwest 179 206 8,000  Level Atlanta Center
12:05PM 35.5864 -80.9819 186° South 187 215 8,000 -660 Level Atlanta Center
12:06PM 35.5383 -80.9811 179° South 189 217 6,800 -1,200 Descending Atlanta Center
12:07PM 35.4861 -80.9806 180° South 186 214 5,700 -1,080 Descending Atlanta Center
12:08PM 35.4400 -80.9747 174° South 178 205 4,800 -960 Descending Atlanta Center
12:09PM 35.3836 -80.9692 175° South 176 203 3,800 -900 Descending Atlanta Center
12:10PM 35.3356 -80.9658 177° South 176 203 2,900 -960 Descending Atlanta Center
12:11PM 35.2853 -80.9628 177° South 177 204 1,900 -900 Descending Atlanta Center
12:12PM 35.2372 -80.9594 177° South 145 167 1,100 -720 Descending Atlanta Center